Time;durP1;ratioP1;P1;durP2;ratioP2;P2;SDS_P1;SDS_P2;PMS_P1;PMS_P2;Temp;Humidity;BMP_temperature;BMP_pressure;BME280_temperature;BME280_humidity;BME280_pressure;Samples;Min_cycle;Max_cycle;Signal;HPM_P1;HPM_P2
2021/11/04 00:00:11;;;;;;;17.97;9.97;;;8.10;99.90;;;;;;4383222;32;20179;-68
2021/11/04 00:02:39;;;;;;;17.43;9.53;;;8.10;99.90;;;;;;4383896;32;20191;-66
2021/11/04 00:05:07;;;;;;;17.37;10.27;;;8.10;99.90;;;;;;4382291;32;20186;-67
2021/11/04 00:07:34;;;;;;;15.87;9.63;;;8.10;99.90;;;;;;4383526;32;20257;-67
2021/11/04 00:10:01;;;;;;;16.27;10.03;;;8.10;99.90;;;;;;4397895;32;20227;-68
2021/11/04 00:12:28;;;;;;;16.10;9.90;;;8.10;99.90;;;;;;4397475;32;20140;-68
2021/11/04 00:14:55;;;;;;;19.23;10.47;;;8.10;99.90;;;;;;4383931;32;20195;-67
2021/11/04 00:17:22;;;;;;;17.03;9.83;;;8.10;99.90;;;;;;4383613;32;20213;-67
2021/11/04 00:19:48;;;;;;;17.57;10.10;;;8.10;99.90;;;;;;4383692;32;20201;-67
2021/11/04 00:22:15;;;;;;;19.70;10.37;;;8.10;99.90;;;;;;4397514;32;20143;-67
2021/11/04 00:24:42;;;;;;;16.87;10.07;;;8.10;99.90;;;;;;4381782;32;20195;-67
2021/11/04 00:27:09;;;;;;;17.23;9.57;;;8.10;99.90;;;;;;4378006;32;20187;-67
2021/11/04 00:29:36;;;;;;;16.07;9.60;;;8.10;99.90;;;;;;4384935;32;20156;-67
2021/11/04 00:32:04;;;;;;;16.70;10.07;;;8.20;99.90;;;;;;4368226;32;20190;-67
2021/11/04 00:34:31;;;;;;;17.03;9.60;;;8.20;99.90;;;;;;4380294;32;20175;-67
2021/11/04 00:36:58;;;;;;;16.30;9.57;;;8.10;99.90;;;;;;4354799;32;20489;-67
2021/11/04 00:39:25;;;;;;;14.50;9.87;;;8.20;99.90;;;;;;4380262;32;20140;-67
2021/11/04 00:41:52;;;;;;;15.60;9.70;;;8.20;99.90;;;;;;4366909;32;20192;-67
2021/11/04 00:44:19;;;;;;;16.20;9.20;;;8.20;99.90;;;;;;4380511;32;20166;-67
2021/11/04 00:46:46;;;;;;;16.07;9.40;;;8.20;99.90;;;;;;4354767;32;20178;-67
2021/11/04 00:49:13;;;;;;;15.57;8.90;;;8.20;99.90;;;;;;4367627;32;20195;-67
2021/11/04 00:51:43;;;;;;;15.33;9.30;;;8.20;99.90;;;;;;4367971;32;20187;-67
2021/11/04 00:54:10;;;;;;;15.27;9.60;;;8.20;99.90;;;;;;4368052;32;20176;-67
2021/11/04 00:56:36;;;;;;;17.17;9.27;;;8.20;99.90;;;;;;4381887;32;20222;-67
2021/11/04 00:59:03;;;;;;;16.27;9.00;;;8.10;99.90;;;;;;4365804;32;20456;-67
2021/11/04 01:01:30;;;;;;;15.87;9.53;;;8.10;99.90;;;;;;4368086;32;20246;-68
2021/11/04 01:03:57;;;;;;;15.03;9.33;;;8.10;99.90;;;;;;4365599;32;20237;-68
2021/11/04 01:06:24;;;;;;;15.83;9.10;;;8.10;99.90;;;;;;4366605;32;20230;-68
2021/11/04 01:08:51;;;;;;;14.97;8.97;;;8.10;99.90;;;;;;4381922;32;20440;-68
2021/11/04 01:11:18;;;;;;;15.57;9.63;;;8.10;99.90;;;;;;4366316;32;20207;-68
2021/11/04 01:13:46;;;;;;;13.73;9.07;;;8.10;99.90;;;;;;4381698;32;20431;-68
2021/11/04 01:16:13;;;;;;;15.37;8.97;;;8.10;99.90;;;;;;4369681;32;20234;-67
2021/11/04 01:18:40;;;;;;;15.77;8.83;;;8.10;99.90;;;;;;4372456;32;20255;-68
2021/11/04 01:21:07;;;;;;;17.00;8.83;;;8.10;99.90;;;;;;4367062;32;20359;-67
2021/11/04 01:23:34;;;;;;;13.50;8.47;;;8.10;99.90;;;;;;4380340;32;20162;-68
2021/11/04 01:26:01;;;;;;;13.23;8.57;;;8.00;99.90;;;;;;4366842;32;20448;-67
2021/11/04 01:28:28;;;;;;;14.17;8.70;;;8.00;99.90;;;;;;4366646;32;20245;-68
2021/11/04 01:30:54;;;;;;;16.83;8.87;;;8.00;99.90;;;;;;4366927;32;20206;-67
2021/11/04 01:33:21;;;;;;;13.30;8.83;;;8.10;99.90;;;;;;4367079;32;20195;-68
2021/11/04 01:35:48;;;;;;;12.70;8.47;;;8.00;99.90;;;;;;4365136;32;20183;-68
2021/11/04 01:38:17;;;;;;;13.57;8.63;;;8.10;99.90;;;;;;4354925;32;20179;-66
2021/11/04 01:40:44;;;;;;;15.47;8.60;;;8.10;99.90;;;;;;4366674;32;20213;-67
2021/11/04 01:43:11;;;;;;;13.90;8.40;;;8.10;99.90;;;;;;4366920;32;20186;-68
2021/11/04 01:45:38;;;;;;;13.40;8.27;;;8.00;99.90;;;;;;4367088;32;20179;-67
2021/11/04 01:48:05;;;;;;;13.70;8.07;;;8.00;99.90;;;;;;4367209;32;20198;-68
2021/11/04 01:50:34;;;;;;;12.00;8.13;;;8.10;99.90;;;;;;4365032;32;20221;-68
2021/11/04 01:53:01;;;;;;;14.13;8.30;;;8.10;99.90;;;;;;4366355;32;20190;-68
2021/11/04 01:55:29;;;;;;;13.07;8.13;;;8.20;99.90;;;;;;4366904;32;20224;-67
2021/11/04 01:57:59;;;;;;;12.77;8.10;;;8.20;99.90;;;;;;4367465;32;20188;-68
2021/11/04 02:00:29;;;;;;;13.43;8.10;;;8.20;99.90;;;;;;4367233;32;20229;-68
2021/11/04 02:03:23;;;;;;;12.87;7.47;;;8.20;99.90;;;;;;4363832;32;20184;-68
2021/11/04 02:06:11;;;;;;;12.47;7.27;;;8.20;99.90;;;;;;4365383;32;20151;-68
2021/11/04 02:08:44;;;;;;;14.13;8.23;;;8.30;99.90;;;;;;4363618;32;20541;-68
2021/11/04 02:11:18;;;;;;;13.10;7.57;;;8.30;99.90;;;;;;4365267;32;20401;-68
2021/11/04 02:13:53;;;;;;;11.93;7.67;;;8.30;99.90;;;;;;4365266;32;20170;-68
2021/11/04 02:16:24;;;;;;;12.83;7.17;;;8.30;99.90;;;;;;4361684;32;20266;-68
2021/11/04 02:18:53;;;;;;;11.00;6.50;;;8.40;99.90;;;;;;4363545;32;20192;-68
2021/11/04 02:21:38;;;;;;;10.57;6.90;;;8.40;99.90;;;;;;4364153;32;20482;-68
2021/11/04 02:24:23;;;;;;;10.27;7.10;;;8.40;99.90;;;;;;4363456;32;20249;-68
2021/11/04 02:26:51;;;;;;;11.53;7.20;;;8.50;99.90;;;;;;4362005;32;20184;-68
2021/11/04 02:29:19;;;;;;;10.40;6.93;;;8.50;99.90;;;;;;4363199;32;20220;-67
2021/11/04 02:31:49;;;;;;;11.37;7.10;;;8.50;99.90;;;;;;4363202;32;20504;-68
2021/11/04 02:34:16;;;;;;;10.90;7.20;;;8.50;99.90;;;;;;4361986;32;20564;-68
2021/11/04 02:36:45;;;;;;;12.20;7.27;;;8.50;99.90;;;;;;4363596;32;20202;-68
2021/11/04 02:39:13;;;;;;;11.73;6.73;;;8.60;99.90;;;;;;4361415;33;20202;-68
2021/11/04 02:41:40;;;;;;;10.63;6.53;;;8.50;99.90;;;;;;4361945;32;20469;-69
2021/11/04 02:44:10;;;;;;;11.07;7.20;;;8.60;99.90;;;;;;4367558;32;20183;-68
2021/11/04 02:46:38;;;;;;;11.17;6.93;;;8.60;99.90;;;;;;4378298;32;20214;-68
2021/11/04 02:49:05;;;;;;;9.93;6.40;;;8.60;99.90;;;;;;4379098;32;20168;-68
2021/11/04 02:51:36;;;;;;;11.10;6.57;;;8.60;99.90;;;;;;4378396;32;20194;-67
2021/11/04 02:54:06;;;;;;;10.67;6.13;;;8.60;99.90;;;;;;4365750;32;20414;-67
2021/11/04 02:56:50;;;;;;;10.60;6.50;;;8.50;99.90;;;;;;4378021;32;20203;-67
2021/11/04 02:59:20;;;;;;;10.33;6.43;;;8.50;99.90;;;;;;4378431;32;20430;-67
2021/11/04 03:01:49;;;;;;;8.80;5.77;;;8.50;99.90;;;;;;4378361;32;20165;-68
2021/11/04 03:04:18;;;;;;;9.63;5.90;;;8.40;99.90;;;;;;4377068;32;20243;-67
2021/11/04 03:06:45;;;;;;;9.30;6.10;;;8.40;99.90;;;;;;4378098;32;20230;-67
2021/11/04 03:09:13;;;;;;;10.37;6.37;;;8.40;99.90;;;;;;4379173;32;20403;-67
2021/11/04 03:11:40;;;;;;;9.97;6.43;;;8.30;99.90;;;;;;4378101;32;20187;-67
2021/11/04 03:14:07;;;;;;;9.83;6.30;;;8.30;99.90;;;;;;4377916;32;20197;-67
2021/11/04 03:16:38;;;;;;;10.57;6.40;;;8.40;99.90;;;;;;4376439;32;20229;-67
2021/11/04 03:19:11;;;;;;;10.83;6.30;;;8.40;99.90;;;;;;4376302;32;20217;-67
2021/11/04 03:21:41;;;;;;;9.83;5.80;;;8.40;99.90;;;;;;4378029;32;20207;-67
2021/11/04 03:24:09;;;;;;;9.93;6.03;;;8.40;99.90;;;;;;4376145;32;20233;-67
2021/11/04 03:26:41;;;;;;;10.47;6.07;;;8.40;99.90;;;;;;4378343;32;20264;-66
2021/11/04 03:29:09;;;;;;;10.40;6.10;;;8.40;99.90;;;;;;4378077;32;20175;-67
2021/11/04 03:31:38;;;;;;;11.10;5.90;;;8.40;99.90;;;;;;4372741;32;20209;-66
2021/11/04 03:34:06;;;;;;;12.23;6.20;;;8.40;99.90;;;;;;4365952;32;20191;-66
2021/11/04 03:36:34;;;;;;;10.13;5.73;;;8.40;99.90;;;;;;4364371;33;20545;-66
2021/11/04 03:39:04;;;;;;;8.27;5.77;;;8.30;99.90;;;;;;4364156;32;20183;-66
2021/11/04 03:41:33;;;;;;;9.53;6.17;;;8.40;99.90;;;;;;4364350;33;20176;-66
2021/11/04 03:44:00;;;;;;;9.93;6.23;;;8.40;99.90;;;;;;4364753;32;20448;-66
2021/11/04 03:46:28;;;;;;;10.80;6.20;;;8.30;99.90;;;;;;4353838;32;20289;-66
2021/11/04 03:48:55;;;;;;;9.63;5.77;;;8.40;99.90;;;;;;4364327;32;20247;-68
2021/11/04 03:51:23;;;;;;;10.40;5.80;;;8.30;99.90;;;;;;4365919;32;20184;-67
2021/11/04 03:53:51;;;;;;;10.43;6.03;;;8.20;99.90;;;;;;4366237;32;20267;-68
2021/11/04 03:56:20;;;;;;;9.30;5.87;;;8.20;99.90;;;;;;4353409;32;20498;-67
2021/11/04 03:58:48;;;;;;;10.73;6.00;;;8.20;99.90;;;;;;4364237;32;20229;-66
2021/11/04 04:01:15;;;;;;;7.80;5.70;;;8.30;99.90;;;;;;4364040;33;20230;-69
2021/11/04 04:03:43;;;;;;;9.00;5.50;;;8.30;99.90;;;;;;4366026;32;20180;-66
2021/11/04 04:06:10;;;;;;;8.87;5.60;;;8.30;99.90;;;;;;4364747;32;20184;-67
2021/11/04 04:08:46;;;;;;;11.63;6.30;;;8.30;99.90;;;;;;4371948;32;20215;-68
2021/11/04 04:11:14;;;;;;;11.20;6.10;;;8.30;99.90;;;;;;4365483;32;20605;-68
2021/11/04 04:13:41;;;;;;;8.20;5.40;;;8.30;99.90;;;;;;4365443;32;20588;-68
2021/11/04 04:16:08;;;;;;;8.83;5.57;;;8.30;99.90;;;;;;4366554;32;20217;-68
2021/11/04 04:18:35;;;;;;;8.13;5.57;;;8.30;99.90;;;;;;4366965;32;20136;-68
2021/11/04 04:21:02;;;;;;;9.07;5.87;;;8.20;99.90;;;;;;4366758;32;20152;-68
2021/11/04 04:23:29;;;;;;;9.07;6.03;;;8.30;99.90;;;;;;4363877;33;20184;-68
2021/11/04 04:25:55;;;;;;;9.13;5.80;;;8.30;99.90;;;;;;4363962;33;20465;-68
2021/11/04 04:28:22;;;;;;;8.87;6.03;;;8.20;99.90;;;;;;4365108;32;20168;-68
2021/11/04 04:30:49;;;;;;;8.63;5.30;;;8.20;99.90;;;;;;4365106;32;20206;-68
2021/11/04 04:33:16;;;;;;;9.63;5.80;;;8.20;99.90;;;;;;4363843;33;20195;-68
2021/11/04 04:35:43;;;;;;;11.20;6.00;;;8.20;99.90;;;;;;4366674;32;20379;-68
2021/11/04 04:38:09;;;;;;;8.40;6.00;;;8.20;99.90;;;;;;4368833;32;20256;-68
2021/11/04 04:40:36;;;;;;;9.43;5.90;;;8.20;99.90;;;;;;4370256;32;20165;-68
2021/11/04 04:43:04;;;;;;;8.70;5.50;;;8.20;99.90;;;;;;4365529;32;20192;-68
2021/11/04 04:45:30;;;;;;;10.87;5.67;;;8.20;99.90;;;;;;4364922;32;20243;-68
2021/11/04 04:47:57;;;;;;;9.10;6.07;;;8.20;99.90;;;;;;4363685;32;20188;-68
2021/11/04 04:50:24;;;;;;;10.07;6.13;;;8.20;99.90;;;;;;4363723;32;20183;-68
2021/11/04 04:52:51;;;;;;;9.97;5.83;;;8.20;99.90;;;;;;4364969;32;20202;-68
2021/11/04 04:55:18;;;;;;;10.47;5.80;;;8.20;99.90;;;;;;4365135;32;20211;-68
2021/11/04 04:57:45;;;;;;;10.53;6.10;;;8.20;99.90;;;;;;4362864;32;20566;-68
2021/11/04 05:00:14;;;;;;;8.43;5.80;;;8.20;99.90;;;;;;4363925;32;20247;-68
2021/11/04 05:02:43;;;;;;;9.73;6.07;;;8.20;99.90;;;;;;4364766;32;20214;-68
2021/11/04 05:05:12;;;;;;;8.90;5.80;;;8.20;99.90;;;;;;4363754;32;20172;-68
2021/11/04 05:07:39;;;;;;;8.70;5.53;;;8.10;99.90;;;;;;4365274;32;20210;-67
2021/11/04 05:10:07;;;;;;;8.93;5.80;;;8.10;99.90;;;;;;4364891;32;20238;-68
2021/11/04 05:12:35;;;;;;;9.90;5.80;;;8.10;99.90;;;;;;4366190;32;20223;-67
2021/11/04 05:15:03;;;;;;;11.83;6.30;;;8.10;99.90;;;;;;4364785;32;20482;-67
2021/11/04 05:17:30;;;;;;;8.87;5.80;;;8.10;99.90;;;;;;4366224;32;20202;-67
2021/11/04 05:19:57;;;;;;;9.27;5.70;;;8.10;99.90;;;;;;4370578;32;20194;-67
2021/11/04 05:22:24;;;;;;;10.33;5.93;;;8.10;99.90;;;;;;4364542;32;20542;-66
2021/11/04 05:24:50;;;;;;;8.47;5.93;;;8.10;99.90;;;;;;4362969;33;20246;-67
2021/11/04 05:27:17;;;;;;;9.83;6.00;;;8.10;99.90;;;;;;4351240;33;20188;-67
2021/11/04 05:29:44;;;;;;;9.20;6.40;;;8.20;99.90;;;;;;4364245;32;20214;-66
2021/11/04 05:32:11;;;;;;;9.17;5.90;;;8.20;99.90;;;;;;4351860;32;20176;-67
2021/11/04 05:34:39;;;;;;;9.53;5.90;;;8.30;99.90;;;;;;4363897;32;20218;-67
2021/11/04 05:37:08;;;;;;;8.70;5.53;;;8.30;99.90;;;;;;4362799;32;20187;-67
2021/11/04 05:39:36;;;;;;;9.67;5.90;;;8.30;99.90;;;;;;4363896;32;20242;-67
2021/11/04 05:42:06;;;;;;;10.70;6.10;;;8.20;99.90;;;;;;4365460;32;20148;-68
2021/11/04 05:44:35;;;;;;;9.03;5.87;;;8.20;99.90;;;;;;4364117;32;20439;-67
2021/11/04 05:47:06;;;;;;;9.23;6.57;;;8.30;99.90;;;;;;4363938;32;20206;-68
2021/11/04 05:49:38;;;;;;;10.93;6.73;;;8.30;99.90;;;;;;4364571;32;20175;-67
2021/11/04 05:52:05;;;;;;;10.37;6.30;;;8.30;99.90;;;;;;4371213;32;20164;-67
2021/11/04 05:54:32;;;;;;;10.97;6.10;;;8.30;99.90;;;;;;4363863;32;20489;-67
2021/11/04 05:57:00;;;;;;;11.10;6.67;;;8.30;99.90;;;;;;4363876;32;20183;-66
2021/11/04 05:59:27;;;;;;;9.87;6.10;;;8.30;99.90;;;;;;4366519;32;20227;-67
2021/11/04 06:01:54;;;;;;;12.50;6.17;;;8.30;99.90;;;;;;4365049;32;20190;-67
2021/11/04 06:04:22;;;;;;;10.67;6.20;;;8.30;99.90;;;;;;4366637;32;20206;-67
2021/11/04 06:06:49;;;;;;;11.10;6.70;;;8.30;99.90;;;;;;4366377;32;20234;-67
2021/11/04 06:09:16;;;;;;;10.97;6.30;;;8.40;99.90;;;;;;4366332;32;20542;-67
2021/11/04 06:11:43;;;;;;;10.70;5.73;;;8.40;99.90;;;;;;4364806;32;20225;-67
2021/11/04 06:14:10;;;;;;;9.63;6.47;;;8.40;99.90;;;;;;4366451;32;20175;-66
2021/11/04 06:16:37;;;;;;;12.30;6.20;;;8.40;99.90;;;;;;4380011;32;20238;-67
2021/11/04 06:19:04;;;;;;;12.00;6.57;;;8.40;99.90;;;;;;4380044;32;20152;-67
2021/11/04 06:21:31;;;;;;;10.67;6.97;;;8.40;99.90;;;;;;4364900;32;20179;-67
2021/11/04 06:23:57;;;;;;;13.27;7.23;;;8.40;99.90;;;;;;4379471;32;20147;-67
2021/11/04 06:26:24;;;;;;;12.03;6.77;;;8.40;99.90;;;;;;4378991;32;20179;-67
2021/11/04 06:28:51;;;;;;;10.27;6.80;;;8.40;99.90;;;;;;4380596;32;20175;-68
2021/11/04 06:31:18;;;;;;;13.37;6.60;;;8.40;99.90;;;;;;4380818;32;20209;-66
2021/11/04 06:33:45;;;;;;;11.53;6.77;;;8.40;99.90;;;;;;4380976;32;20204;-67
2021/11/04 06:36:11;;;;;;;9.83;6.50;;;8.50;99.90;;;;;;4380819;32;20491;-67
2021/11/04 06:38:38;;;;;;;10.83;6.33;;;8.50;99.90;;;;;;4379112;32;20244;-66
2021/11/04 06:41:05;;;;;;;9.40;6.17;;;8.50;99.90;;;;;;4381126;32;20417;-68
2021/11/04 06:43:32;;;;;;;11.97;6.80;;;8.50;99.90;;;;;;4378934;32;20183;-68
2021/11/04 06:46:01;;;;;;;13.33;6.83;;;8.50;99.90;;;;;;4379035;32;20204;-68
2021/11/04 06:48:41;;;;;;;11.60;6.50;;;8.50;99.90;;;;;;4378982;32;20526;-67
2021/11/04 06:51:11;;;;;;;10.43;6.10;;;8.60;99.90;;;;;;4380782;32;20268;-67
2021/11/04 06:53:55;;;;;;;10.30;6.10;;;8.60;99.90;;;;;;4394155;32;20500;-67
2021/11/04 06:56:23;;;;;;;13.27;6.60;;;8.60;99.90;;;;;;4380878;32;20175;-66
2021/11/04 06:58:52;;;;;;;12.70;6.73;;;8.60;99.90;;;;;;4378810;32;20201;-66
2021/11/04 07:01:21;;;;;;;10.57;6.40;;;8.60;99.90;;;;;;4391600;32;20473;-67
2021/11/04 07:03:48;;;;;;;11.33;6.90;;;8.70;99.90;;;;;;4371136;32;20179;-67
2021/11/04 07:06:29;;;;;;;11.60;6.43;;;8.70;99.90;;;;;;4379776;32;20217;-67
2021/11/04 07:08:58;;;;;;;10.53;6.07;;;8.70;99.90;;;;;;4379983;32;20175;-67
2021/11/04 07:11:32;;;;;;;14.77;7.07;;;8.80;99.90;;;;;;4380702;32;20485;-67
2021/11/04 07:13:59;;;;;;;12.23;6.60;;;8.80;99.90;;;;;;4378650;32;20237;-66
2021/11/04 07:16:27;;;;;;;14.00;6.80;;;8.90;99.90;;;;;;4393388;32;20155;-67
2021/11/04 07:18:56;;;;;;;11.50;6.73;;;8.80;99.90;;;;;;4380715;32;20192;-66
2021/11/04 07:21:42;;;;;;;12.47;6.77;;;8.90;99.90;;;;;;4394480;32;20182;-65
2021/11/04 07:24:19;;;;;;;13.63;6.43;;;8.90;99.90;;;;;;4366274;32;20493;-66
2021/11/04 07:26:52;;;;;;;11.30;6.57;;;8.90;99.90;;;;;;4378682;32;20183;-63
2021/11/04 07:29:27;;;;;;;11.50;6.67;;;8.90;99.90;;;;;;4378499;32;20219;-66
2021/11/04 07:31:54;;;;;;;10.43;6.50;;;9.00;99.90;;;;;;4378586;32;20562;-65
2021/11/04 07:34:24;;;;;;;12.53;6.50;;;9.10;99.90;;;;;;4378644;32;20237;-64
2021/11/04 07:36:53;;;;;;;11.43;5.90;;;9.10;99.90;;;;;;4379016;32;20186;-67
2021/11/04 07:39:19;;;;;;;9.53;5.70;;;9.20;99.90;;;;;;4393080;32;20541;-67
2021/11/04 07:41:46;;;;;;;10.23;5.57;;;9.20;99.90;;;;;;4380729;32;20183;-67
2021/11/04 07:44:13;;;;;;;9.93;5.60;;;9.30;99.90;;;;;;4375061;32;20183;-66
2021/11/04 07:46:40;;;;;;;10.17;5.77;;;9.30;99.90;;;;;;4371752;32;20605;-67
2021/11/04 07:49:07;;;;;;;7.97;5.17;;;9.40;99.90;;;;;;4363843;32;20184;-66
2021/11/04 07:51:35;;;;;;;9.90;5.50;;;9.50;99.90;;;;;;4365106;32;20190;-67
2021/11/04 07:54:04;;;;;;;7.67;5.10;;;9.60;99.90;;;;;;4365098;32;20246;-66
2021/11/04 07:56:34;;;;;;;7.53;5.23;;;9.60;99.90;;;;;;4364692;32;20191;-67
2021/11/04 07:59:04;;;;;;;9.57;5.10;;;9.70;99.90;;;;;;4376385;32;20404;-66
2021/11/04 08:01:31;;;;;;;11.83;5.53;;;9.80;99.90;;;;;;4378413;32;20201;-65
2021/11/04 08:03:58;;;;;;;9.30;4.80;;;9.80;99.90;;;;;;4378523;32;20194;-66
2021/11/04 08:06:25;;;;;;;10.47;5.27;;;9.90;99.90;;;;;;4378571;32;20247;-65
2021/11/04 08:08:51;;;;;;;9.57;5.13;;;9.90;99.90;;;;;;4380029;32;20179;-65
2021/11/04 08:11:18;;;;;;;9.53;5.73;;;10.00;99.90;;;;;;4380273;32;20195;-66
2021/11/04 08:13:45;;;;;;;8.83;5.17;;;10.00;99.90;;;;;;4381659;32;20224;-66
2021/11/04 08:16:12;;;;;;;11.37;5.20;;;10.10;99.90;;;;;;4382630;32;20537;-66
2021/11/04 08:18:38;;;;;;;8.00;4.90;;;10.10;99.90;;;;;;4382616;32;20180;-65
2021/11/04 08:21:05;;;;;;;7.40;5.03;;;10.20;99.90;;;;;;4396539;32;20446;-67
2021/11/04 08:23:33;;;;;;;9.77;5.17;;;10.20;99.90;;;;;;4376553;32;20269;-66
2021/11/04 08:25:59;;;;;;;9.50;4.83;;;10.30;99.90;;;;;;4366959;32;20263;-67
2021/11/04 08:28:27;;;;;;;9.77;4.90;;;10.40;99.90;;;;;;4365890;32;20242;-66
2021/11/04 08:30:53;;;;;;;7.03;4.90;;;10.50;99.90;;;;;;4367581;32;20201;-67
2021/11/04 08:33:20;;;;;;;7.90;4.87;;;10.50;99.90;;;;;;4368020;32;20211;-66
2021/11/04 08:35:47;;;;;;;9.63;5.70;;;10.60;99.90;;;;;;4367419;32;20171;-66
2021/11/04 08:38:18;;;;;;;7.70;4.80;;;10.70;99.90;;;;;;4367635;32;20423;-66
2021/11/04 08:40:45;;;;;;;10.90;4.60;;;10.70;99.90;;;;;;4366162;32;20202;-66
2021/11/04 08:43:12;;;;;;;8.47;4.60;;;10.80;99.90;;;;;;4381609;32;20166;-66
2021/11/04 08:45:39;;;;;;;8.60;4.77;;;10.90;99.90;;;;;;4380088;32;20164;-66
2021/11/04 08:48:06;;;;;;;8.57;4.67;;;11.00;99.90;;;;;;4367431;32;20210;-66
2021/11/04 08:50:33;;;;;;;8.47;4.50;;;11.00;99.90;;;;;;4381532;32;20418;-65
2021/11/04 08:53:00;;;;;;;6.23;4.20;;;11.00;99.90;;;;;;4366010;32;20236;-67
2021/11/04 08:55:27;;;;;;;6.77;4.20;;;11.10;99.90;;;;;;4365616;32;20262;-66
2021/11/04 08:57:54;;;;;;;8.43;4.80;;;11.10;99.90;;;;;;4363520;32;20188;-67
2021/11/04 09:00:21;;;;;;;7.17;4.37;;;11.20;99.90;;;;;;4364800;32;20230;-67
2021/11/04 09:02:49;;;;;;;7.53;4.47;;;11.20;99.90;;;;;;4378880;32;20242;-66
2021/11/04 09:05:15;;;;;;;9.33;4.70;;;11.20;99.90;;;;;;4380034;32;20241;-67
2021/11/04 09:07:44;;;;;;;9.90;4.80;;;11.30;99.90;;;;;;4378118;32;20282;-66
2021/11/04 09:10:16;;;;;;;8.50;4.67;;;11.30;99.90;;;;;;4375396;32;20261;-66
2021/11/04 09:12:42;;;;;;;8.50;4.70;;;11.30;99.90;;;;;;4379378;32;20437;-68
2021/11/04 09:15:11;;;;;;;8.43;4.70;;;11.30;99.90;;;;;;4379809;32;20196;-68
2021/11/04 09:17:39;;;;;;;9.30;4.90;;;11.40;99.90;;;;;;4378147;32;20522;-68
2021/11/04 09:20:07;;;;;;;7.97;4.60;;;11.50;99.90;;;;;;4378848;32;20613;-64
2021/11/04 09:22:35;;;;;;;6.67;4.40;;;11.50;99.90;;;;;;4380585;32;20148;-67
2021/11/04 09:25:03;;;;;;;8.97;4.57;;;11.60;99.90;;;;;;4377637;32;20430;-66
2021/11/04 09:27:30;;;;;;;9.13;4.60;;;11.60;99.90;;;;;;4378145;32;20202;-68
2021/11/04 09:29:59;;;;;;;11.40;4.90;;;11.70;99.90;;;;;;4379939;32;20218;-68
2021/11/04 09:32:25;;;;;;;7.63;4.97;;;11.70;99.90;;;;;;4358487;32;20183;-66
2021/11/04 09:34:58;;;;;;;9.40;5.10;;;11.80;99.90;;;;;;4370611;32;20243;-67
2021/11/04 09:37:25;;;;;;;11.23;5.40;;;11.90;99.90;;;;;;4378944;32;20466;-66
2021/11/04 09:39:52;;;;;;;11.17;4.90;;;11.90;99.90;;;;;;4377380;32;20196;-67
2021/11/04 09:42:20;;;;;;;9.67;5.43;;;12.00;99.90;;;;;;4379021;32;20430;-68
2021/11/04 09:44:48;;;;;;;10.90;5.83;;;12.10;99.90;;;;;;4378636;32;20494;-67
2021/11/04 09:47:29;;;;;;;9.63;5.20;;;12.30;99.90;;;;;;4378033;32;20561;-69
2021/11/04 09:49:58;;;;;;;9.23;5.13;;;12.40;99.90;;;;;;4378769;32;20226;-68
2021/11/04 09:52:27;;;;;;;7.73;4.70;;;12.40;99.90;;;;;;4378702;32;20198;-68
2021/11/04 09:54:59;;;;;;;7.93;5.00;;;12.50;99.90;;;;;;4373716;32;20190;-68
2021/11/04 09:57:27;;;;;;;10.30;4.80;;;12.60;99.90;;;;;;4376317;32;20198;-66
2021/11/04 09:59:55;;;;;;;11.00;4.70;;;12.60;99.90;;;;;;4378311;32;20217;-67
2021/11/04 10:02:25;;;;;;;9.13;4.70;;;12.70;99.90;;;;;;4378477;32;20219;-66
2021/11/04 10:05:01;;;;;;;8.20;4.17;;;12.80;99.90;;;;;;4377069;32;20226;-67
2021/11/04 10:07:49;;;;;;;8.03;3.90;;;12.80;99.90;;;;;;4377781;32;20190;-66
2021/11/04 10:10:18;;;;;;;9.37;4.07;;;12.90;99.90;;;;;;4378694;32;20212;-67
2021/11/04 10:12:58;;;;;;;8.20;4.03;;;12.90;99.90;;;;;;4378066;32;20207;-66
2021/11/04 10:15:25;;;;;;;7.07;3.90;;;12.90;99.90;;;;;;4378251;32;20559;-67
2021/11/04 10:17:52;;;;;;;9.40;3.73;;;13.00;99.90;;;;;;4378613;32;20486;-67
2021/11/04 10:20:27;;;;;;;7.63;3.70;;;13.00;99.90;;;;;;4379007;32;20188;-67
2021/11/04 10:23:12;;;;;;;6.90;3.70;;;13.10;99.90;;;;;;4376438;32;20209;-66
2021/11/04 10:25:41;;;;;;;8.07;3.90;;;13.30;99.90;;;;;;4378935;32;20517;-66
2021/11/04 10:28:29;;;;;;;8.00;3.87;;;13.50;99.90;;;;;;4378306;32;20219;-66
2021/11/04 10:30:56;;;;;;;11.37;3.83;;;13.60;99.90;;;;;;4378469;32;20529;-66
2021/11/04 10:33:32;;;;;;;7.37;3.83;;;13.80;99.90;;;;;;4371200;32;20182;-66
2021/11/04 10:36:14;;;;;;;5.87;3.57;;;14.00;99.90;;;;;;4362063;32;20288;-66
2021/11/04 10:38:44;;;;;;;7.53;3.60;;;14.40;99.90;;;;;;4361942;32;20222;-65
2021/11/04 10:41:23;;;;;;;8.47;4.10;;;14.60;99.90;;;;;;4361679;33;20235;-66
2021/11/04 10:43:53;;;;;;;11.60;4.30;;;14.70;99.90;;;;;;4363296;32;20179;-66
2021/11/04 10:46:26;;;;;;;9.73;4.60;;;14.80;99.90;;;;;;4364325;32;20239;-66
2021/11/04 10:48:58;;;;;;;8.43;4.10;;;14.70;99.90;;;;;;4361380;33;20185;-67
2021/11/04 10:51:27;;;;;;;7.47;4.13;;;14.70;99.90;;;;;;4363006;32;20245;-65
2021/11/04 10:54:01;;;;;;;7.07;3.63;;;14.60;99.90;;;;;;4363894;32;20140;-66
2021/11/04 10:56:31;;;;;;;8.90;4.37;;;14.60;99.90;;;;;;4363088;32;20530;-65
2021/11/04 10:59:03;;;;;;;7.57;4.40;;;14.60;99.90;;;;;;4361235;32;20188;-66
2021/11/04 11:01:42;;;;;;;7.87;4.37;;;14.50;99.90;;;;;;4363473;32;20184;-66
2021/11/04 11:04:14;;;;;;;9.50;4.67;;;14.50;99.90;;;;;;4363108;32;20544;-65
2021/11/04 11:06:53;;;;;;;8.67;4.70;;;14.50;99.90;;;;;;4363293;32;20215;-67
2021/11/04 11:09:31;;;;;;;9.47;4.30;;;14.50;99.90;;;;;;4367627;32;20208;-66
2021/11/04 11:12:07;;;;;;;7.80;4.30;;;14.40;99.90;;;;;;4363595;32;20203;-67
2021/11/04 11:14:38;;;;;;;7.83;4.40;;;14.30;99.90;;;;;;4362172;32;20238;-66
2021/11/04 11:17:05;;;;;;;8.80;4.40;;;14.20;99.90;;;;;;4364260;32;20156;-66
2021/11/04 11:19:38;;;;;;;8.07;4.60;;;14.20;99.90;;;;;;4362514;32;20202;-66
2021/11/04 11:22:07;;;;;;;9.57;4.80;;;14.10;99.90;;;;;;4364436;32;20144;-66
2021/11/04 11:24:37;;;;;;;7.80;4.70;;;14.10;99.90;;;;;;4363186;32;20231;-66
2021/11/04 11:27:09;;;;;;;8.77;4.63;;;14.10;99.90;;;;;;4367934;32;20345;-66
2021/11/04 11:29:39;;;;;;;8.80;4.50;;;14.00;99.90;;;;;;4362714;32;20466;-66
2021/11/04 11:32:21;;;;;;;8.03;4.60;;;14.00;99.90;;;;;;4364276;32;20462;-66
2021/11/04 11:34:49;;;;;;;10.80;4.70;;;14.00;99.90;;;;;;4369616;32;20213;-66
2021/11/04 11:37:23;;;;;;;8.90;5.00;;;14.00;99.90;;;;;;4361673;33;20226;-66
2021/11/04 11:40:12;;;;;;;9.53;5.20;;;14.00;99.90;;;;;;4361050;32;20514;-64
2021/11/04 11:43:04;;;;;;;11.27;4.77;;;14.00;99.90;;;;;;4363003;33;20209;-64
2021/11/04 11:45:33;;;;;;;10.80;5.10;;;14.00;99.90;;;;;;4361050;33;20337;-66
2021/11/04 11:48:27;;;;;;;11.80;5.10;;;14.00;99.90;;;;;;4363514;32;20239;-66
2021/11/04 11:50:56;;;;;;;9.47;4.90;;;14.00;99.90;;;;;;4385414;32;20172;-67
2021/11/04 11:53:31;;;;;;;11.70;5.23;;;14.00;99.90;;;;;;4365508;32;20176;-65
2021/11/04 11:55:59;;;;;;;11.67;5.37;;;14.00;99.90;;;;;;4363567;32;20241;-66
2021/11/04 11:58:37;;;;;;;9.53;5.40;;;14.00;99.90;;;;;;4364059;32;20218;-67
2021/11/04 12:01:07;;;;;;;12.60;5.60;;;14.10;99.90;;;;;;4363972;33;20211;-67
2021/11/04 12:03:37;;;;;;;9.50;5.43;;;14.00;99.90;;;;;;4364440;32;20374;-66
2021/11/04 12:06:04;;;;;;;9.90;5.50;;;14.00;99.90;;;;;;4364076;33;20206;-65
2021/11/04 12:08:36;;;;;;;8.83;5.20;;;14.00;99.90;;;;;;4363711;32;20215;-65
2021/11/04 12:11:08;;;;;;;11.47;5.73;;;14.00;99.90;;;;;;4366389;32;20454;-66
2021/11/04 12:13:42;;;;;;;12.10;5.80;;;14.00;99.90;;;;;;4366906;32;20429;-62
2021/11/04 12:16:17;;;;;;;11.53;5.93;;;14.00;99.90;;;;;;4364117;32;20179;-65
2021/11/04 12:18:55;;;;;;;10.20;5.63;;;14.00;99.90;;;;;;4365332;32;20175;-63
2021/11/04 12:21:34;;;;;;;11.43;5.87;;;14.00;99.90;;;;;;4366487;32;20275;-64
2021/11/04 12:24:07;;;;;;;11.43;5.50;;;13.90;99.90;;;;;;4371708;32;20266;-65
2021/11/04 12:26:34;;;;;;;11.30;5.57;;;13.90;99.90;;;;;;4365138;32;20465;-64
2021/11/04 12:29:04;;;;;;;11.30;5.50;;;13.90;99.90;;;;;;4365497;32;20245;-64
2021/11/04 12:31:33;;;;;;;10.23;6.00;;;13.90;99.90;;;;;;4363407;33;20222;-65
2021/11/04 12:34:04;;;;;;;10.40;6.20;;;13.90;99.90;;;;;;4364704;32;20184;-65
2021/11/04 12:36:37;;;;;;;15.13;6.50;;;13.80;99.90;;;;;;4364998;32;20190;-65
2021/11/04 12:39:06;;;;;;;11.20;5.90;;;13.80;99.90;;;;;;4366421;32;20467;-65
2021/11/04 12:41:34;;;;;;;10.93;5.63;;;13.80;99.90;;;;;;4364491;32;20167;-64
2021/11/04 12:44:05;;;;;;;13.03;6.23;;;13.80;99.90;;;;;;4365216;32;20340;-64
2021/11/04 12:46:33;;;;;;;10.93;6.00;;;13.80;99.90;;;;;;4363120;33;20233;-64
2021/11/04 12:49:04;;;;;;;12.27;6.00;;;13.80;99.90;;;;;;4366239;32;20235;-64
2021/11/04 12:51:41;;;;;;;12.90;6.07;;;13.70;99.90;;;;;;4363496;33;20210;-65
2021/11/04 12:54:10;;;;;;;13.00;6.40;;;13.70;99.90;;;;;;4364702;32;20176;-65
2021/11/04 12:56:48;;;;;;;11.57;6.27;;;13.70;99.90;;;;;;4371675;32;20399;-65
2021/11/04 12:59:48;;;;;;;12.23;6.70;;;13.60;99.90;;;;;;4364615;32;20532;-65